sensor_id;sensor_type;location;lat;lon;timestamp;pressure;altitude;pressure_sealevel;temperature;humidity
58739;BME280;44512;53.046;18.604;2023-07-13T00:05:58;101223.05;;;22.73;59.06
58739;BME280;44512;53.046;18.604;2023-07-13T00:16:22;101227.39;;;22.58;58.90
58739;BME280;44512;53.046;18.604;2023-07-13T00:26:50;101231.48;;;22.46;59.10
58739;BME280;44512;53.046;18.604;2023-07-13T00:37:19;101220.36;;;22.30;58.87
58739;BME280;44512;53.046;18.604;2023-07-13T00:47:47;101235.70;;;22.16;58.81
58739;BME280;44512;53.046;18.604;2023-07-13T00:58:16;101245.48;;;22.02;58.95
58739;BME280;44512;53.046;18.604;2023-07-13T01:08:44;101269.13;;;21.93;59.25
58739;BME280;44512;53.046;18.604;2023-07-13T01:29:43;101246.38;;;21.75;59.18
58739;BME280;44512;53.046;18.604;2023-07-13T01:40:10;101251.78;;;21.65;59.23
58739;BME280;44512;53.046;18.604;2023-07-13T01:50:38;101258.06;;;21.55;59.47
58739;BME280;44512;53.046;18.604;2023-07-13T02:01:05;101274.77;;;21.49;59.81
58739;BME280;44512;53.046;18.604;2023-07-13T02:11:34;101272.50;;;21.41;59.95
58739;BME280;44512;53.046;18.604;2023-07-13T02:22:03;101270.76;;;21.35;60.24
58739;BME280;44512;53.046;18.604;2023-07-13T02:32:30;101245.34;;;21.27;60.41
58739;BME280;44512;53.046;18.604;2023-07-13T02:42:59;101248.85;;;21.23;60.75
58739;BME280;44512;53.046;18.604;2023-07-13T02:53:28;101255.13;;;21.18;60.92
58739;BME280;44512;53.046;18.604;2023-07-13T03:03:56;101245.77;;;21.14;61.26
58739;BME280;44512;53.046;18.604;2023-07-13T03:14:24;101250.66;;;21.12;61.66
58739;BME280;44512;53.046;18.604;2023-07-13T03:24:52;101242.95;;;21.09;62.00
58739;BME280;44512;53.046;18.604;2023-07-13T03:35:21;101257.77;;;21.08;62.43
58739;BME280;44512;53.046;18.604;2023-07-13T03:45:49;101265.47;;;21.06;62.66
58739;BME280;44512;53.046;18.604;2023-07-13T03:56:18;101264.37;;;21.07;63.26
58739;BME280;44512;53.046;18.604;2023-07-13T04:06:46;101268.27;;;21.11;63.89
58739;BME280;44512;53.046;18.604;2023-07-13T04:17:14;101282.10;;;21.16;64.12
58739;BME280;44512;53.046;18.604;2023-07-13T04:27:42;101304.45;;;21.20;64.33
58739;BME280;44512;53.046;18.604;2023-07-13T04:38:11;101327.04;;;21.22;64.17
58739;BME280;44512;53.046;18.604;2023-07-13T04:48:39;101322.36;;;21.22;63.77
58739;BME280;44512;53.046;18.604;2023-07-13T04:59:07;101314.10;;;21.22;63.47
58739;BME280;44512;53.046;18.604;2023-07-13T05:09:36;101338.61;;;21.24;63.61
58739;BME280;44512;53.046;18.604;2023-07-13T05:20:05;101355.46;;;21.27;63.49
58739;BME280;44512;53.046;18.604;2023-07-13T05:30:32;101369.79;;;21.29;63.14
58739;BME280;44512;53.046;18.604;2023-07-13T05:41:01;101382.82;;;21.34;62.77
58739;BME280;44512;53.046;18.604;2023-07-13T05:51:29;101401.33;;;21.39;62.64
58739;BME280;44512;53.046;18.604;2023-07-13T06:01:57;101391.48;;;21.43;62.97
58739;BME280;44512;53.046;18.604;2023-07-13T06:12:26;101409.16;;;21.47;63.34
58739;BME280;44512;53.046;18.604;2023-07-13T06:22:54;101392.10;;;21.50;63.46
58739;BME280;44512;53.046;18.604;2023-07-13T06:33:23;101392.76;;;21.57;62.80
58739;BME280;44512;53.046;18.604;2023-07-13T06:43:51;101382.90;;;21.61;61.94
58739;BME280;44512;53.046;18.604;2023-07-13T06:54:19;101370.84;;;21.67;61.85
58739;BME280;44512;53.046;18.604;2023-07-13T07:04:48;101373.89;;;21.71;60.93
58739;BME280;44512;53.046;18.604;2023-07-13T07:15:17;101400.99;;;21.79;60.72
58739;BME280;44512;53.046;18.604;2023-07-13T07:25:45;101411.56;;;21.87;61.43
58739;BME280;44512;53.046;18.604;2023-07-13T07:36:13;101414.94;;;21.94;62.00
58739;BME280;44512;53.046;18.604;2023-07-13T07:46:41;101413.05;;;22.00;62.11
58739;BME280;44512;53.046;18.604;2023-07-13T07:57:09;101424.70;;;22.07;62.00
58739;BME280;44512;53.046;18.604;2023-07-13T08:07:38;101426.21;;;22.15;60.51
58739;BME280;44512;53.046;18.604;2023-07-13T08:18:06;101433.16;;;22.22;59.99
58739;BME280;44512;53.046;18.604;2023-07-13T08:28:35;101432.13;;;22.28;60.12
58739;BME280;44512;53.046;18.604;2023-07-13T08:39:03;101431.08;;;22.34;59.76
58739;BME280;44512;53.046;18.604;2023-07-13T08:49:33;101433.94;;;22.45;58.93
58739;BME280;44512;53.046;18.604;2023-07-13T09:00:00;101441.16;;;22.51;57.30
58739;BME280;44512;53.046;18.604;2023-07-13T09:10:30;101437.11;;;22.63;56.73
58739;BME280;44512;53.046;18.604;2023-07-13T09:31:49;101425.70;;;22.87;56.12
58739;BME280;44512;53.046;18.604;2023-07-13T09:42:21;101417.80;;;22.96;55.61
58739;BME280;44512;53.046;18.604;2023-07-13T09:52:21;101402.37;;;23.05;55.15
58739;BME280;44512;53.046;18.604;2023-07-13T10:02:59;101397.49;;;23.17;54.98
58739;BME280;44512;53.046;18.604;2023-07-13T10:13:27;101396.44;;;23.28;54.07
58739;BME280;44512;53.046;18.604;2023-07-13T10:23:50;101414.19;;;23.43;51.03
58739;BME280;44512;53.046;18.604;2023-07-13T10:34:14;101428.05;;;23.53;51.57
58739;BME280;44512;53.046;18.604;2023-07-13T10:44:43;101444.04;;;23.51;52.47
58739;BME280;44512;53.046;18.604;2023-07-13T11:05:40;101464.93;;;23.26;55.41
58739;BME280;44512;53.046;18.604;2023-07-13T11:26:44;101468.32;;;22.96;57.34
58739;BME280;44512;53.046;18.604;2023-07-13T11:37:12;101459.93;;;22.86;57.91
58739;BME280;44512;53.046;18.604;2023-07-13T11:47:32;101448.06;;;22.85;59.53
58739;BME280;44512;53.046;18.604;2023-07-13T11:58:01;101460.76;;;22.86;60.59
58739;BME280;44512;53.046;18.604;2023-07-13T12:08:29;101452.00;;;22.95;60.90
58739;BME280;44512;53.046;18.604;2023-07-13T12:18:59;101448.23;;;23.06;61.07
58739;BME280;44512;53.046;18.604;2023-07-13T12:29:26;101437.52;;;23.20;60.91
58739;BME280;44512;53.046;18.604;2023-07-13T12:39:54;101427.39;;;23.35;59.77
58739;BME280;44512;53.046;18.604;2023-07-13T12:50:24;101423.89;;;23.55;59.01
58739;BME280;44512;53.046;18.604;2023-07-13T13:00:54;101415.99;;;23.74;57.05
58739;BME280;44512;53.046;18.604;2023-07-13T13:11:21;101425.45;;;23.94;56.17
58739;BME280;44512;53.046;18.604;2023-07-13T13:21:48;101418.01;;;24.09;53.69
58739;BME280;44512;53.046;18.604;2023-07-13T13:32:16;101398.92;;;24.23;52.76
58739;BME280;44512;53.046;18.604;2023-07-13T13:42:44;101422.49;;;24.36;51.09
58739;BME280;44512;53.046;18.604;2023-07-13T13:53:13;101462.34;;;24.40;50.71
58739;BME280;44512;53.046;18.604;2023-07-13T14:03:41;101475.55;;;24.28;50.68
58739;BME280;44512;53.046;18.604;2023-07-13T14:14:15;101444.57;;;24.15;50.77
58739;BME280;44512;53.046;18.604;2023-07-13T14:24:37;101418.27;;;24.13;51.24
58739;BME280;44512;53.046;18.604;2023-07-13T14:35:10;101416.10;;;24.25;50.65
58739;BME280;44512;53.046;18.604;2023-07-13T14:50:58;101402.55;;;24.64;49.52
58739;BME280;44512;53.046;18.604;2023-07-13T15:01:26;101415.52;;;25.00;47.82
58739;BME280;44512;53.046;18.604;2023-07-13T15:11:58;101408.19;;;25.50;45.51
58739;BME280;44512;53.046;18.604;2023-07-13T15:22:23;101408.24;;;25.94;42.88
58739;BME280;44512;53.046;18.604;2023-07-13T15:32:51;101397.34;;;26.08;40.89
58739;BME280;44512;53.046;18.604;2023-07-13T15:43:20;101402.26;;;26.21;40.68
58739;BME280;44512;53.046;18.604;2023-07-13T15:53:48;101393.88;;;26.60;41.11
58739;BME280;44512;53.046;18.604;2023-07-13T16:04:17;101391.59;;;26.96;40.84
58739;BME280;44512;53.046;18.604;2023-07-13T16:14:44;101401.93;;;27.20;39.54
58739;BME280;44512;53.046;18.604;2023-07-13T16:25:24;101398.01;;;27.45;39.41
58739;BME280;44512;53.046;18.604;2023-07-13T16:35:41;101409.21;;;27.59;38.67
58739;BME280;44512;53.046;18.604;2023-07-13T16:46:11;101405.29;;;27.84;38.78
58739;BME280;44512;53.046;18.604;2023-07-13T16:56:43;101406.86;;;28.09;36.65
58739;BME280;44512;53.046;18.604;2023-07-13T17:07:11;101409.20;;;28.39;36.03
58739;BME280;44512;53.046;18.604;2023-07-13T17:17:39;101411.64;;;28.60;35.18
58739;BME280;44512;53.046;18.604;2023-07-13T17:28:07;101409.67;;;28.60;34.69
58739;BME280;44512;53.046;18.604;2023-07-13T17:38:38;101416.92;;;28.42;34.59
58739;BME280;44512;53.046;18.604;2023-07-13T17:49:04;101424.23;;;28.19;34.97
58739;BME280;44512;53.046;18.604;2023-07-13T17:59:32;101418.15;;;27.98;35.75
58739;BME280;44512;53.046;18.604;2023-07-13T18:10:01;101417.92;;;27.76;36.33
58739;BME280;44512;53.046;18.604;2023-07-13T18:20:29;101423.11;;;27.59;37.00
58739;BME280;44512;53.046;18.604;2023-07-13T18:30:57;101437.52;;;27.42;37.23
58739;BME280;44512;53.046;18.604;2023-07-13T18:41:26;101443.00;;;27.23;37.71
58739;BME280;44512;53.046;18.604;2023-07-13T18:51:54;101436.54;;;27.04;38.19
58739;BME280;44512;53.046;18.604;2023-07-13T19:02:22;101451.04;;;26.95;38.63
58739;BME280;44512;53.046;18.604;2023-07-13T19:12:52;101453.96;;;26.80;39.74
58739;BME280;44512;53.046;18.604;2023-07-13T19:33:48;101482.35;;;26.33;43.57
58739;BME280;44512;53.046;18.604;2023-07-13T19:44:16;101496.68;;;26.06;44.17
58739;BME280;44512;53.046;18.604;2023-07-13T19:54:47;101501.52;;;25.80;45.70
58739;BME280;44512;53.046;18.604;2023-07-13T20:05:14;101501.84;;;25.53;46.53
58739;BME280;44512;53.046;18.604;2023-07-13T20:15:41;101510.21;;;25.27;46.67
58739;BME280;44512;53.046;18.604;2023-07-13T20:26:09;101510.78;;;25.04;46.84
58739;BME280;44512;53.046;18.604;2023-07-13T20:36:37;101500.83;;;24.87;47.32
58739;BME280;44512;53.046;18.604;2023-07-13T20:47:10;101513.55;;;24.68;48.06
58739;BME280;44512;53.046;18.604;2023-07-13T20:57:34;101511.87;;;24.47;48.24
58739;BME280;44512;53.046;18.604;2023-07-13T21:08:03;101524.52;;;24.27;48.19
58739;BME280;44512;53.046;18.604;2023-07-13T21:18:31;101535.54;;;24.12;48.29
58739;BME280;44512;53.046;18.604;2023-07-13T21:29:02;101549.88;;;23.99;48.22
58739;BME280;44512;53.046;18.604;2023-07-13T21:39:27;101552.02;;;23.86;46.88
58739;BME280;44512;53.046;18.604;2023-07-13T21:49:56;101562.80;;;23.83;45.72
58739;BME280;44512;53.046;18.604;2023-07-13T22:00:24;101553.05;;;23.70;43.63
58739;BME280;44512;53.046;18.604;2023-07-13T22:10:52;101551.30;;;23.59;43.98
58739;BME280;44512;53.046;18.604;2023-07-13T22:21:21;101580.53;;;23.50;43.82
58739;BME280;44512;53.046;18.604;2023-07-13T22:31:49;101555.60;;;23.39;44.51
58739;BME280;44512;53.046;18.604;2023-07-13T22:42:17;101562.15;;;23.28;45.21
58739;BME280;44512;53.046;18.604;2023-07-13T22:52:46;101565.98;;;23.22;46.78
58739;BME280;44512;53.046;18.604;2023-07-13T23:03:17;101580.85;;;23.16;48.31
58739;BME280;44512;53.046;18.604;2023-07-13T23:13:42;101600.60;;;23.03;49.10
58739;BME280;44512;53.046;18.604;2023-07-13T23:24:13;101601.60;;;22.92;49.97
58739;BME280;44512;53.046;18.604;2023-07-13T23:34:39;101601.98;;;22.78;50.69
58739;BME280;44512;53.046;18.604;2023-07-13T23:45:14;101603.25;;;22.66;51.42
58739;BME280;44512;53.046;18.604;2023-07-13T23:55:36;101601.72;;;22.53;51.68
